sensor_id;sensor_type;location;lat;lon;timestamp;P1;durP1;ratioP1;P2;durP2;ratioP2
11598;SDS011;5855;48.840;9.188;2023-09-19T00:05:27;2.03;;;1.00;;
11598;SDS011;5855;48.840;9.188;2023-09-19T00:07:56;1.55;;;1.08;;
11598;SDS011;5855;48.840;9.188;2023-09-19T00:15:57;2.95;;;1.00;;
11598;SDS011;5855;48.840;9.188;2023-09-19T00:30:45;1.67;;;1.13;;
11598;SDS011;5855;48.840;9.188;2023-09-19T00:39:59;1.08;;;0.98;;
11598;SDS011;5855;48.840;9.188;2023-09-19T00:55:41;2.35;;;0.90;;
11598;SDS011;5855;48.840;9.188;2023-09-19T01:08:14;1.63;;;1.08;;
11598;SDS011;5855;48.840;9.188;2023-09-19T01:14:06;1.23;;;1.05;;
11598;SDS011;5855;48.840;9.188;2023-09-19T01:29:49;1.00;;;0.70;;
11598;SDS011;5855;48.840;9.188;2023-09-19T01:38:44;1.00;;;0.90;;
11598;SDS011;5855;48.840;9.188;2023-09-19T01:47:26;1.80;;;0.95;;
11598;SDS011;5855;48.840;9.188;2023-09-19T01:50:02;2.22;;;1.05;;
11598;SDS011;5855;48.840;9.188;2023-09-19T01:52:42;1.48;;;1.10;;
11598;SDS011;5855;48.840;9.188;2023-09-19T01:55:16;0.93;;;0.82;;
11598;SDS011;5855;48.840;9.188;2023-09-19T01:57:48;2.50;;;1.00;;
11598;SDS011;5855;48.840;9.188;2023-09-19T02:00:20;0.85;;;0.85;;
11598;SDS011;5855;48.840;9.188;2023-09-19T02:02:48;2.63;;;1.10;;
11598;SDS011;5855;48.840;9.188;2023-09-19T02:05:21;1.55;;;1.00;;
11598;SDS011;5855;48.840;9.188;2023-09-19T02:07:50;1.98;;;1.00;;
11598;SDS011;5855;48.840;9.188;2023-09-19T02:10:19;3.78;;;1.05;;
11598;SDS011;5855;48.840;9.188;2023-09-19T02:12:46;2.05;;;1.13;;
11598;SDS011;5855;48.840;9.188;2023-09-19T02:15:13;1.55;;;0.98;;
11598;SDS011;5855;48.840;9.188;2023-09-19T02:17:43;1.02;;;0.90;;
11598;SDS011;5855;48.840;9.188;2023-09-19T02:20:11;1.23;;;0.70;;
11598;SDS011;5855;48.840;9.188;2023-09-19T02:22:39;1.67;;;1.00;;
11598;SDS011;5855;48.840;9.188;2023-09-19T02:25:07;1.30;;;0.90;;
11598;SDS011;5855;48.840;9.188;2023-09-19T02:27:36;1.65;;;1.10;;
11598;SDS011;5855;48.840;9.188;2023-09-19T02:30:03;1.25;;;0.98;;
11598;SDS011;5855;48.840;9.188;2023-09-19T02:32:31;2.67;;;1.30;;
11598;SDS011;5855;48.840;9.188;2023-09-19T02:35:01;1.42;;;0.93;;
11598;SDS011;5855;48.840;9.188;2023-09-19T02:37:29;1.33;;;0.95;;
11598;SDS011;5855;48.840;9.188;2023-09-19T02:39:57;1.88;;;1.20;;
11598;SDS011;5855;48.840;9.188;2023-09-19T02:42:24;1.65;;;1.00;;
11598;SDS011;5855;48.840;9.188;2023-09-19T02:44:52;2.53;;;1.00;;
11598;SDS011;5855;48.840;9.188;2023-09-19T02:47:19;0.95;;;0.90;;
11598;SDS011;5855;48.840;9.188;2023-09-19T02:49:47;1.13;;;0.98;;
11598;SDS011;5855;48.840;9.188;2023-09-19T02:52:14;1.02;;;0.93;;
11598;SDS011;5855;48.840;9.188;2023-09-19T02:54:41;1.95;;;1.10;;
11598;SDS011;5855;48.840;9.188;2023-09-19T02:57:10;1.08;;;0.98;;
11598;SDS011;5855;48.840;9.188;2023-09-19T02:59:39;2.40;;;1.10;;
11598;SDS011;5855;48.840;9.188;2023-09-19T03:02:08;1.90;;;1.20;;
11598;SDS011;5855;48.840;9.188;2023-09-19T03:04:35;1.45;;;0.80;;
11598;SDS011;5855;48.840;9.188;2023-09-19T03:07:03;1.73;;;1.10;;
11598;SDS011;5855;48.840;9.188;2023-09-19T03:09:31;1.00;;;0.90;;
11598;SDS011;5855;48.840;9.188;2023-09-19T03:11:58;1.65;;;0.90;;
11598;SDS011;5855;48.840;9.188;2023-09-19T03:14:25;1.25;;;0.80;;
11598;SDS011;5855;48.840;9.188;2023-09-19T03:16:55;1.23;;;0.93;;
11598;SDS011;5855;48.840;9.188;2023-09-19T03:19:23;1.13;;;1.00;;
11598;SDS011;5855;48.840;9.188;2023-09-19T03:21:51;2.42;;;1.20;;
11598;SDS011;5855;48.840;9.188;2023-09-19T03:24:18;1.23;;;1.00;;
11598;SDS011;5855;48.840;9.188;2023-09-19T03:26:45;2.15;;;1.15;;
11598;SDS011;5855;48.840;9.188;2023-09-19T03:29:12;1.88;;;0.90;;
11598;SDS011;5855;48.840;9.188;2023-09-19T03:31:40;1.23;;;1.05;;
11598;SDS011;5855;48.840;9.188;2023-09-19T03:34:08;1.83;;;1.20;;
11598;SDS011;5855;48.840;9.188;2023-09-19T03:36:36;1.92;;;1.08;;
11598;SDS011;5855;48.840;9.188;2023-09-19T03:39:03;1.42;;;1.20;;
11598;SDS011;5855;48.840;9.188;2023-09-19T03:41:31;1.38;;;1.08;;
11598;SDS011;5855;48.840;9.188;2023-09-19T03:44:01;2.55;;;1.30;;
11598;SDS011;5855;48.840;9.188;2023-09-19T03:46:28;1.85;;;1.20;;
11598;SDS011;5855;48.840;9.188;2023-09-19T03:48:55;1.58;;;1.30;;
11598;SDS011;5855;48.840;9.188;2023-09-19T03:51:22;1.77;;;1.10;;
11598;SDS011;5855;48.840;9.188;2023-09-19T03:53:50;1.33;;;1.02;;
11598;SDS011;5855;48.840;9.188;2023-09-19T03:56:17;1.52;;;1.00;;
11598;SDS011;5855;48.840;9.188;2023-09-19T03:58:44;1.02;;;0.93;;
11598;SDS011;5855;48.840;9.188;2023-09-19T04:01:11;1.15;;;1.05;;
11598;SDS011;5855;48.840;9.188;2023-09-19T04:03:38;1.67;;;1.10;;
11598;SDS011;5855;48.840;9.188;2023-09-19T04:06:15;2.13;;;1.00;;
11598;SDS011;5855;48.840;9.188;2023-09-19T04:08:43;1.52;;;1.10;;
11598;SDS011;5855;48.840;9.188;2023-09-19T04:11:13;1.70;;;1.20;;
11598;SDS011;5855;48.840;9.188;2023-09-19T04:13:40;1.23;;;1.10;;
11598;SDS011;5855;48.840;9.188;2023-09-19T04:16:07;2.05;;;0.95;;
11598;SDS011;5855;48.840;9.188;2023-09-19T04:18:34;2.25;;;1.10;;
11598;SDS011;5855;48.840;9.188;2023-09-19T04:21:03;1.10;;;1.00;;
11598;SDS011;5855;48.840;9.188;2023-09-19T04:23:30;1.23;;;1.13;;
11598;SDS011;5855;48.840;9.188;2023-09-19T04:25:57;3.00;;;1.40;;
11598;SDS011;5855;48.840;9.188;2023-09-19T04:28:26;1.02;;;1.00;;
11598;SDS011;5855;48.840;9.188;2023-09-19T04:30:53;1.73;;;1.17;;
11598;SDS011;5855;48.840;9.188;2023-09-19T04:33:21;1.55;;;1.20;;
11598;SDS011;5855;48.840;9.188;2023-09-19T04:35:49;2.00;;;1.45;;
11598;SDS011;5855;48.840;9.188;2023-09-19T04:38:16;1.98;;;1.25;;
11598;SDS011;5855;48.840;9.188;2023-09-19T04:40:44;3.95;;;1.40;;
11598;SDS011;5855;48.840;9.188;2023-09-19T04:43:11;2.85;;;1.20;;
11598;SDS011;5855;48.840;9.188;2023-09-19T04:45:39;1.25;;;1.15;;
11598;SDS011;5855;48.840;9.188;2023-09-19T04:48:07;3.20;;;1.50;;
11598;SDS011;5855;48.840;9.188;2023-09-19T04:50:35;3.33;;;1.48;;
11598;SDS011;5855;48.840;9.188;2023-09-19T04:53:03;1.75;;;1.38;;
11598;SDS011;5855;48.840;9.188;2023-09-19T04:55:30;1.95;;;1.58;;
11598;SDS011;5855;48.840;9.188;2023-09-19T04:57:57;2.90;;;1.80;;
11598;SDS011;5855;48.840;9.188;2023-09-19T05:00:24;1.77;;;1.38;;
11598;SDS011;5855;48.840;9.188;2023-09-19T05:02:56;3.35;;;1.50;;
11598;SDS011;5855;48.840;9.188;2023-09-19T05:05:23;2.45;;;1.75;;
11598;SDS011;5855;48.840;9.188;2023-09-19T05:07:52;2.42;;;1.40;;
11598;SDS011;5855;48.840;9.188;2023-09-19T05:10:20;2.67;;;1.60;;
11598;SDS011;5855;48.840;9.188;2023-09-19T05:12:47;3.88;;;1.52;;
11598;SDS011;5855;48.840;9.188;2023-09-19T05:15:16;4.28;;;1.70;;
11598;SDS011;5855;48.840;9.188;2023-09-19T05:17:47;3.55;;;1.45;;
11598;SDS011;5855;48.840;9.188;2023-09-19T05:20:16;1.98;;;1.45;;
11598;SDS011;5855;48.840;9.188;2023-09-19T05:22:50;2.08;;;1.58;;
11598;SDS011;5855;48.840;9.188;2023-09-19T05:25:23;1.55;;;1.38;;
11598;SDS011;5855;48.840;9.188;2023-09-19T05:27:52;3.88;;;1.80;;
11598;SDS011;5855;48.840;9.188;2023-09-19T05:30:20;4.45;;;1.63;;
11598;SDS011;5855;48.840;9.188;2023-09-19T05:32:47;2.88;;;1.55;;
11598;SDS011;5855;48.840;9.188;2023-09-19T05:35:15;2.75;;;1.63;;
11598;SDS011;5855;48.840;9.188;2023-09-19T05:37:42;2.20;;;1.80;;
11598;SDS011;5855;48.840;9.188;2023-09-19T05:40:09;2.70;;;1.88;;
11598;SDS011;5855;48.840;9.188;2023-09-19T05:42:37;3.33;;;1.85;;
11598;SDS011;5855;48.840;9.188;2023-09-19T05:45:04;3.17;;;1.80;;
11598;SDS011;5855;48.840;9.188;2023-09-19T05:50:22;3.05;;;1.58;;
11598;SDS011;5855;48.840;9.188;2023-09-19T05:52:52;5.50;;;1.95;;
11598;SDS011;5855;48.840;9.188;2023-09-19T05:55:21;3.30;;;1.60;;
11598;SDS011;5855;48.840;9.188;2023-09-19T05:57:50;3.78;;;1.85;;
11598;SDS011;5855;48.840;9.188;2023-09-19T06:00:17;3.60;;;1.75;;
11598;SDS011;5855;48.840;9.188;2023-09-19T06:02:48;2.88;;;1.80;;
11598;SDS011;5855;48.840;9.188;2023-09-19T06:05:17;4.20;;;1.55;;
11598;SDS011;5855;48.840;9.188;2023-09-19T06:07:45;3.30;;;1.90;;
11598;SDS011;5855;48.840;9.188;2023-09-19T06:10:12;2.38;;;1.77;;
11598;SDS011;5855;48.840;9.188;2023-09-19T06:12:39;3.25;;;1.98;;
11598;SDS011;5855;48.840;9.188;2023-09-19T06:15:09;4.05;;;1.90;;
11598;SDS011;5855;48.840;9.188;2023-09-19T06:17:40;2.30;;;1.80;;
11598;SDS011;5855;48.840;9.188;2023-09-19T06:20:07;3.22;;;2.00;;
11598;SDS011;5855;48.840;9.188;2023-09-19T06:22:37;4.10;;;1.90;;
11598;SDS011;5855;48.840;9.188;2023-09-19T06:25:07;3.53;;;1.73;;
11598;SDS011;5855;48.840;9.188;2023-09-19T06:27:37;4.60;;;1.98;;
11598;SDS011;5855;48.840;9.188;2023-09-19T06:30:05;3.80;;;2.10;;
11598;SDS011;5855;48.840;9.188;2023-09-19T06:32:33;3.72;;;2.28;;
11598;SDS011;5855;48.840;9.188;2023-09-19T06:35:00;5.07;;;2.10;;
11598;SDS011;5855;48.840;9.188;2023-09-19T06:37:28;4.40;;;2.25;;
11598;SDS011;5855;48.840;9.188;2023-09-19T06:39:54;5.40;;;2.15;;
11598;SDS011;5855;48.840;9.188;2023-09-19T06:42:23;5.82;;;2.00;;
11598;SDS011;5855;48.840;9.188;2023-09-19T06:44:50;4.68;;;2.30;;
11598;SDS011;5855;48.840;9.188;2023-09-19T06:47:18;2.33;;;1.73;;
11598;SDS011;5855;48.840;9.188;2023-09-19T06:49:45;3.75;;;2.10;;
11598;SDS011;5855;48.840;9.188;2023-09-19T06:52:13;5.47;;;2.35;;
11598;SDS011;5855;48.840;9.188;2023-09-19T06:54:40;5.22;;;2.25;;
11598;SDS011;5855;48.840;9.188;2023-09-19T06:57:06;4.82;;;2.00;;
11598;SDS011;5855;48.840;9.188;2023-09-19T06:59:36;5.93;;;2.20;;
11598;SDS011;5855;48.840;9.188;2023-09-19T07:02:03;4.38;;;2.00;;
11598;SDS011;5855;48.840;9.188;2023-09-19T07:04:31;8.38;;;2.35;;
11598;SDS011;5855;48.840;9.188;2023-09-19T07:06:58;5.88;;;1.95;;
11598;SDS011;5855;48.840;9.188;2023-09-19T07:09:25;4.72;;;1.95;;
11598;SDS011;5855;48.840;9.188;2023-09-19T07:11:53;3.58;;;1.90;;
11598;SDS011;5855;48.840;9.188;2023-09-19T07:14:19;5.18;;;1.75;;
11598;SDS011;5855;48.840;9.188;2023-09-19T07:16:48;3.42;;;2.10;;
11598;SDS011;5855;48.840;9.188;2023-09-19T07:19:15;4.30;;;1.95;;
11598;SDS011;5855;48.840;9.188;2023-09-19T07:21:42;6.40;;;2.00;;
11598;SDS011;5855;48.840;9.188;2023-09-19T07:24:12;3.88;;;1.80;;
11598;SDS011;5855;48.840;9.188;2023-09-19T07:26:39;3.05;;;1.67;;
11598;SDS011;5855;48.840;9.188;2023-09-19T07:29:06;6.00;;;2.00;;
11598;SDS011;5855;48.840;9.188;2023-09-19T07:31:33;2.88;;;1.90;;
11598;SDS011;5855;48.840;9.188;2023-09-19T07:34:02;5.63;;;2.05;;
11598;SDS011;5855;48.840;9.188;2023-09-19T07:36:32;6.15;;;1.92;;
11598;SDS011;5855;48.840;9.188;2023-09-19T07:39:02;4.03;;;1.75;;
11598;SDS011;5855;48.840;9.188;2023-09-19T07:41:31;3.58;;;1.83;;
11598;SDS011;5855;48.840;9.188;2023-09-19T07:43:58;4.75;;;2.00;;
11598;SDS011;5855;48.840;9.188;2023-09-19T07:46:25;3.90;;;1.98;;
11598;SDS011;5855;48.840;9.188;2023-09-19T07:48:52;2.85;;;1.77;;
11598;SDS011;5855;48.840;9.188;2023-09-19T07:51:20;6.80;;;1.90;;
11598;SDS011;5855;48.840;9.188;2023-09-19T07:53:48;2.38;;;1.67;;
11598;SDS011;5855;48.840;9.188;2023-09-19T07:56:14;7.05;;;1.65;;
11598;SDS011;5855;48.840;9.188;2023-09-19T07:58:42;2.58;;;1.52;;
11598;SDS011;5855;48.840;9.188;2023-09-19T08:01:10;3.13;;;1.80;;
11598;SDS011;5855;48.840;9.188;2023-09-19T08:03:39;4.65;;;1.63;;
11598;SDS011;5855;48.840;9.188;2023-09-19T08:06:07;2.30;;;1.40;;
11598;SDS011;5855;48.840;9.188;2023-09-19T08:08:35;3.28;;;1.60;;
11598;SDS011;5855;48.840;9.188;2023-09-19T08:11:03;2.25;;;1.60;;
11598;SDS011;5855;48.840;9.188;2023-09-19T08:13:36;2.63;;;1.83;;
11598;SDS011;5855;48.840;9.188;2023-09-19T08:16:08;6.20;;;1.80;;
11598;SDS011;5855;48.840;9.188;2023-09-19T08:18:35;5.93;;;1.70;;
11598;SDS011;5855;48.840;9.188;2023-09-19T08:21:02;5.40;;;1.42;;
11598;SDS011;5855;48.840;9.188;2023-09-19T08:23:28;4.80;;;1.70;;
11598;SDS011;5855;48.840;9.188;2023-09-19T08:25:58;2.92;;;1.45;;
11598;SDS011;5855;48.840;9.188;2023-09-19T08:28:28;2.95;;;1.50;;
11598;SDS011;5855;48.840;9.188;2023-09-19T08:30:55;4.22;;;1.60;;
11598;SDS011;5855;48.840;9.188;2023-09-19T08:33:23;4.82;;;1.50;;
11598;SDS011;5855;48.840;9.188;2023-09-19T08:35:50;3.40;;;1.48;;
11598;SDS011;5855;48.840;9.188;2023-09-19T08:38:16;5.60;;;1.50;;
11598;SDS011;5855;48.840;9.188;2023-09-19T08:40:43;3.15;;;1.45;;
11598;SDS011;5855;48.840;9.188;2023-09-19T08:43:11;2.00;;;1.42;;
11598;SDS011;5855;48.840;9.188;2023-09-19T08:45:38;2.22;;;1.50;;
11598;SDS011;5855;48.840;9.188;2023-09-19T08:50:55;3.67;;;1.60;;
11598;SDS011;5855;48.840;9.188;2023-09-19T08:53:27;3.58;;;1.50;;
11598;SDS011;5855;48.840;9.188;2023-09-19T08:56:00;2.78;;;1.45;;
11598;SDS011;5855;48.840;9.188;2023-09-19T08:58:33;2.08;;;1.25;;
11598;SDS011;5855;48.840;9.188;2023-09-19T09:01:05;4.63;;;1.15;;
11598;SDS011;5855;48.840;9.188;2023-09-19T09:03:35;1.83;;;1.20;;
11598;SDS011;5855;48.840;9.188;2023-09-19T09:06:03;1.65;;;1.52;;
11598;SDS011;5855;48.840;9.188;2023-09-19T09:08:31;2.53;;;1.30;;
11598;SDS011;5855;48.840;9.188;2023-09-19T09:10:58;7.32;;;1.50;;
11598;SDS011;5855;48.840;9.188;2023-09-19T09:13:25;1.73;;;1.27;;
11598;SDS011;5855;48.840;9.188;2023-09-19T09:15:54;1.83;;;1.27;;
11598;SDS011;5855;48.840;9.188;2023-09-19T09:18:21;3.80;;;1.58;;
11598;SDS011;5855;48.840;9.188;2023-09-19T09:20:48;2.85;;;1.20;;
11598;SDS011;5855;48.840;9.188;2023-09-19T09:23:15;1.40;;;1.20;;
11598;SDS011;5855;48.840;9.188;2023-09-19T09:25:51;2.45;;;1.42;;
11598;SDS011;5855;48.840;9.188;2023-09-19T09:28:25;1.55;;;0.98;;
11598;SDS011;5855;48.840;9.188;2023-09-19T09:30:55;3.67;;;1.48;;
11598;SDS011;5855;48.840;9.188;2023-09-19T09:33:23;3.30;;;1.42;;
11598;SDS011;5855;48.840;9.188;2023-09-19T09:35:51;1.58;;;1.25;;
11598;SDS011;5855;48.840;9.188;2023-09-19T09:38:19;1.73;;;1.10;;
11598;SDS011;5855;48.840;9.188;2023-09-19T09:40:51;3.40;;;1.33;;
11598;SDS011;5855;48.840;9.188;2023-09-19T09:43:30;2.38;;;1.50;;
11598;SDS011;5855;48.840;9.188;2023-09-19T09:46:10;2.85;;;1.40;;
11598;SDS011;5855;48.840;9.188;2023-09-19T09:49:06;1.73;;;1.33;;
11598;SDS011;5855;48.840;9.188;2023-09-19T09:51:44;2.42;;;1.60;;
11598;SDS011;5855;48.840;9.188;2023-09-19T09:54:14;4.35;;;1.40;;
11598;SDS011;5855;48.840;9.188;2023-09-19T09:56:52;1.88;;;1.40;;
11598;SDS011;5855;48.840;9.188;2023-09-19T10:02:16;2.20;;;1.38;;
11598;SDS011;5855;48.840;9.188;2023-09-19T10:04:50;6.25;;;1.70;;
11598;SDS011;5855;48.840;9.188;2023-09-19T10:07:27;3.28;;;1.38;;
11598;SDS011;5855;48.840;9.188;2023-09-19T10:09:58;1.63;;;1.23;;
11598;SDS011;5855;48.840;9.188;2023-09-19T10:12:34;2.22;;;1.33;;
11598;SDS011;5855;48.840;9.188;2023-09-19T10:15:05;1.98;;;1.23;;
11598;SDS011;5855;48.840;9.188;2023-09-19T10:17:44;2.60;;;1.50;;
11598;SDS011;5855;48.840;9.188;2023-09-19T10:20:12;3.22;;;1.38;;
11598;SDS011;5855;48.840;9.188;2023-09-19T10:23:03;1.35;;;1.10;;
11598;SDS011;5855;48.840;9.188;2023-09-19T10:25:36;2.88;;;1.60;;
11598;SDS011;5855;48.840;9.188;2023-09-19T10:28:05;2.88;;;1.55;;
11598;SDS011;5855;48.840;9.188;2023-09-19T10:30:36;1.98;;;1.30;;
11598;SDS011;5855;48.840;9.188;2023-09-19T10:33:05;1.98;;;1.35;;
11598;SDS011;5855;48.840;9.188;2023-09-19T10:35:33;2.53;;;1.30;;
11598;SDS011;5855;48.840;9.188;2023-09-19T10:38:03;2.45;;;1.40;;
11598;SDS011;5855;48.840;9.188;2023-09-19T10:40:34;2.53;;;1.35;;
11598;SDS011;5855;48.840;9.188;2023-09-19T10:43:05;2.38;;;1.40;;
11598;SDS011;5855;48.840;9.188;2023-09-19T10:45:33;1.55;;;1.15;;
11598;SDS011;5855;48.840;9.188;2023-09-19T10:48:01;2.15;;;1.20;;
11598;SDS011;5855;48.840;9.188;2023-09-19T10:50:31;3.22;;;1.20;;
11598;SDS011;5855;48.840;9.188;2023-09-19T10:53:04;1.75;;;1.20;;
11598;SDS011;5855;48.840;9.188;2023-09-19T10:55:33;1.17;;;1.08;;
11598;SDS011;5855;48.840;9.188;2023-09-19T10:58:01;4.30;;;1.23;;
11598;SDS011;5855;48.840;9.188;2023-09-19T11:00:49;1.95;;;1.20;;
11598;SDS011;5855;48.840;9.188;2023-09-19T11:03:21;1.20;;;1.10;;
11598;SDS011;5855;48.840;9.188;2023-09-19T11:06:03;2.05;;;1.20;;
11598;SDS011;5855;48.840;9.188;2023-09-19T11:08:53;2.40;;;1.30;;
11598;SDS011;5855;48.840;9.188;2023-09-19T11:11:47;2.17;;;1.15;;
11598;SDS011;5855;48.840;9.188;2023-09-19T11:14:28;1.70;;;1.30;;
11598;SDS011;5855;48.840;9.188;2023-09-19T11:20:19;1.30;;;1.20;;
11598;SDS011;5855;48.840;9.188;2023-09-19T11:23:20;1.58;;;1.00;;
11598;SDS011;5855;48.840;9.188;2023-09-19T11:25:55;1.27;;;1.10;;
11598;SDS011;5855;48.840;9.188;2023-09-19T11:28:32;3.40;;;1.45;;
11598;SDS011;5855;48.840;9.188;2023-09-19T11:34:42;1.77;;;1.15;;
11598;SDS011;5855;48.840;9.188;2023-09-19T11:40:46;4.68;;;0.90;;
11598;SDS011;5855;48.840;9.188;2023-09-19T11:43:30;2.55;;;0.90;;
11598;SDS011;5855;48.840;9.188;2023-09-19T11:46:05;1.58;;;1.27;;
11598;SDS011;5855;48.840;9.188;2023-09-19T11:48:36;2.03;;;1.38;;
11598;SDS011;5855;48.840;9.188;2023-09-19T11:51:17;2.03;;;1.20;;
11598;SDS011;5855;48.840;9.188;2023-09-19T11:53:53;1.88;;;1.10;;
11598;SDS011;5855;48.840;9.188;2023-09-19T11:56:23;1.63;;;1.00;;
11598;SDS011;5855;48.840;9.188;2023-09-19T11:58:51;1.92;;;1.13;;
11598;SDS011;5855;48.840;9.188;2023-09-19T12:01:23;2.30;;;1.20;;
11598;SDS011;5855;48.840;9.188;2023-09-19T12:03:54;2.22;;;1.30;;
11598;SDS011;5855;48.840;9.188;2023-09-19T12:06:23;1.10;;;1.00;;
11598;SDS011;5855;48.840;9.188;2023-09-19T12:08:50;2.05;;;1.40;;
11598;SDS011;5855;48.840;9.188;2023-09-19T12:11:19;2.35;;;1.00;;
11598;SDS011;5855;48.840;9.188;2023-09-19T12:13:49;2.80;;;1.02;;
11598;SDS011;5855;48.840;9.188;2023-09-19T12:16:18;2.25;;;0.80;;
11598;SDS011;5855;48.840;9.188;2023-09-19T12:18:48;1.15;;;0.95;;
11598;SDS011;5855;48.840;9.188;2023-09-19T12:21:22;1.10;;;0.90;;
11598;SDS011;5855;48.840;9.188;2023-09-19T12:26:43;2.75;;;0.98;;
11598;SDS011;5855;48.840;9.188;2023-09-19T12:29:13;1.17;;;1.08;;
11598;SDS011;5855;48.840;9.188;2023-09-19T12:31:52;3.88;;;1.63;;
11598;SDS011;5855;48.840;9.188;2023-09-19T12:34:22;1.10;;;1.00;;
11598;SDS011;5855;48.840;9.188;2023-09-19T12:37:05;2.08;;;1.20;;
11598;SDS011;5855;48.840;9.188;2023-09-19T12:39:36;2.28;;;1.15;;
11598;SDS011;5855;48.840;9.188;2023-09-19T12:42:07;1.67;;;1.20;;
11598;SDS011;5855;48.840;9.188;2023-09-19T12:44:36;3.28;;;1.13;;
11598;SDS011;5855;48.840;9.188;2023-09-19T12:47:14;2.30;;;1.23;;
11598;SDS011;5855;48.840;9.188;2023-09-19T12:50:10;1.75;;;1.10;;
11598;SDS011;5855;48.840;9.188;2023-09-19T12:52:42;0.80;;;0.80;;
11598;SDS011;5855;48.840;9.188;2023-09-19T12:55:22;1.33;;;1.02;;
11598;SDS011;5855;48.840;9.188;2023-09-19T12:57:58;1.83;;;1.08;;
11598;SDS011;5855;48.840;9.188;2023-09-19T13:00:33;1.23;;;1.10;;
11598;SDS011;5855;48.840;9.188;2023-09-19T13:03:16;3.72;;;1.08;;
11598;SDS011;5855;48.840;9.188;2023-09-19T13:05:48;1.45;;;1.13;;
11598;SDS011;5855;48.840;9.188;2023-09-19T13:08:17;1.30;;;1.05;;
11598;SDS011;5855;48.840;9.188;2023-09-19T13:13:49;1.70;;;1.08;;
11598;SDS011;5855;48.840;9.188;2023-09-19T13:16:19;3.05;;;0.98;;
11598;SDS011;5855;48.840;9.188;2023-09-19T13:18:49;3.10;;;1.10;;
11598;SDS011;5855;48.840;9.188;2023-09-19T13:21:26;1.42;;;1.15;;
11598;SDS011;5855;48.840;9.188;2023-09-19T13:26:45;2.58;;;1.00;;
11598;SDS011;5855;48.840;9.188;2023-09-19T13:29:13;1.23;;;1.08;;
11598;SDS011;5855;48.840;9.188;2023-09-19T13:31:45;2.40;;;1.27;;
11598;SDS011;5855;48.840;9.188;2023-09-19T13:34:12;1.42;;;1.20;;
11598;SDS011;5855;48.840;9.188;2023-09-19T13:36:40;1.63;;;1.20;;
11598;SDS011;5855;48.840;9.188;2023-09-19T13:39:07;1.67;;;1.20;;
11598;SDS011;5855;48.840;9.188;2023-09-19T13:41:35;2.47;;;1.10;;
11598;SDS011;5855;48.840;9.188;2023-09-19T13:44:02;2.30;;;1.05;;
11598;SDS011;5855;48.840;9.188;2023-09-19T13:46:31;1.60;;;0.98;;
11598;SDS011;5855;48.840;9.188;2023-09-19T13:49:00;1.30;;;1.05;;
11598;SDS011;5855;48.840;9.188;2023-09-19T13:51:28;1.45;;;1.20;;
11598;SDS011;5855;48.840;9.188;2023-09-19T13:53:56;1.95;;;1.10;;
11598;SDS011;5855;48.840;9.188;2023-09-19T13:56:22;1.65;;;1.00;;
11598;SDS011;5855;48.840;9.188;2023-09-19T13:58:50;2.13;;;1.08;;
11598;SDS011;5855;48.840;9.188;2023-09-19T14:01:17;1.98;;;1.27;;
11598;SDS011;5855;48.840;9.188;2023-09-19T14:03:45;1.80;;;1.10;;
11598;SDS011;5855;48.840;9.188;2023-09-19T14:06:14;1.83;;;1.20;;
11598;SDS011;5855;48.840;9.188;2023-09-19T14:08:41;3.42;;;1.30;;
11598;SDS011;5855;48.840;9.188;2023-09-19T14:11:09;1.58;;;1.10;;
11598;SDS011;5855;48.840;9.188;2023-09-19T14:13:36;1.35;;;1.20;;
11598;SDS011;5855;48.840;9.188;2023-09-19T14:16:03;1.30;;;1.02;;
11598;SDS011;5855;48.840;9.188;2023-09-19T14:18:31;1.80;;;1.15;;
11598;SDS011;5855;48.840;9.188;2023-09-19T14:21:01;1.77;;;1.30;;
11598;SDS011;5855;48.840;9.188;2023-09-19T14:23:33;3.55;;;1.25;;
11598;SDS011;5855;48.840;9.188;2023-09-19T14:26:04;1.92;;;1.20;;
11598;SDS011;5855;48.840;9.188;2023-09-19T14:28:31;4.13;;;1.40;;
11598;SDS011;5855;48.840;9.188;2023-09-19T14:31:03;1.77;;;1.17;;
11598;SDS011;5855;48.840;9.188;2023-09-19T14:33:31;1.42;;;1.10;;
11598;SDS011;5855;48.840;9.188;2023-09-19T14:35:57;1.25;;;1.15;;
11598;SDS011;5855;48.840;9.188;2023-09-19T14:38:28;3.25;;;1.30;;
11598;SDS011;5855;48.840;9.188;2023-09-19T14:40:58;2.08;;;1.17;;
11598;SDS011;5855;48.840;9.188;2023-09-19T14:43:26;3.03;;;1.10;;
11598;SDS011;5855;48.840;9.188;2023-09-19T14:45:54;1.38;;;0.95;;
11598;SDS011;5855;48.840;9.188;2023-09-19T14:48:22;2.08;;;1.00;;
11598;SDS011;5855;48.840;9.188;2023-09-19T14:50:50;2.75;;;1.13;;
11598;SDS011;5855;48.840;9.188;2023-09-19T14:53:21;1.58;;;1.20;;
11598;SDS011;5855;48.840;9.188;2023-09-19T14:55:53;1.67;;;1.00;;
11598;SDS011;5855;48.840;9.188;2023-09-19T14:58:21;1.63;;;1.10;;
11598;SDS011;5855;48.840;9.188;2023-09-19T15:00:48;1.17;;;1.08;;
11598;SDS011;5855;48.840;9.188;2023-09-19T15:03:17;2.35;;;1.42;;
11598;SDS011;5855;48.840;9.188;2023-09-19T15:05:44;1.33;;;1.00;;
11598;SDS011;5855;48.840;9.188;2023-09-19T15:08:11;2.15;;;1.40;;
11598;SDS011;5855;48.840;9.188;2023-09-19T15:10:39;1.08;;;0.90;;
11598;SDS011;5855;48.840;9.188;2023-09-19T15:13:07;2.20;;;1.10;;
11598;SDS011;5855;48.840;9.188;2023-09-19T15:15:33;2.80;;;1.00;;
11598;SDS011;5855;48.840;9.188;2023-09-19T15:18:00;1.55;;;1.17;;
11598;SDS011;5855;48.840;9.188;2023-09-19T15:20:30;0.73;;;0.65;;
11598;SDS011;5855;48.840;9.188;2023-09-19T15:22:57;2.83;;;1.20;;
11598;SDS011;5855;48.840;9.188;2023-09-19T15:25:25;0.85;;;0.85;;
11598;SDS011;5855;48.840;9.188;2023-09-19T15:27:54;1.75;;;1.10;;
11598;SDS011;5855;48.840;9.188;2023-09-19T15:30:23;1.60;;;1.10;;
11598;SDS011;5855;48.840;9.188;2023-09-19T15:32:53;1.40;;;1.05;;
11598;SDS011;5855;48.840;9.188;2023-09-19T15:35:20;1.50;;;1.00;;
11598;SDS011;5855;48.840;9.188;2023-09-19T15:37:47;1.20;;;1.10;;
11598;SDS011;5855;48.840;9.188;2023-09-19T15:40:15;1.88;;;1.30;;
11598;SDS011;5855;48.840;9.188;2023-09-19T15:42:42;1.48;;;1.05;;
11598;SDS011;5855;48.840;9.188;2023-09-19T15:45:10;1.15;;;1.05;;
11598;SDS011;5855;48.840;9.188;2023-09-19T15:47:37;2.17;;;0.90;;
11598;SDS011;5855;48.840;9.188;2023-09-19T15:50:04;1.67;;;1.05;;
11598;SDS011;5855;48.840;9.188;2023-09-19T15:52:32;3.28;;;1.30;;
11598;SDS011;5855;48.840;9.188;2023-09-19T15:54:59;0.90;;;0.85;;
11598;SDS011;5855;48.840;9.188;2023-09-19T15:57:28;1.02;;;0.93;;
11598;SDS011;5855;48.840;9.188;2023-09-19T15:59:55;1.20;;;1.02;;
11598;SDS011;5855;48.840;9.188;2023-09-19T16:02:24;1.70;;;1.00;;
11598;SDS011;5855;48.840;9.188;2023-09-19T16:04:51;1.35;;;1.05;;
11598;SDS011;5855;48.840;9.188;2023-09-19T16:07:20;1.45;;;1.10;;
11598;SDS011;5855;48.840;9.188;2023-09-19T16:09:47;4.05;;;3.60;;
11598;SDS011;5855;48.840;9.188;2023-09-19T16:12:13;3.05;;;1.38;;
11598;SDS011;5855;48.840;9.188;2023-09-19T16:14:40;1.40;;;1.20;;
11598;SDS011;5855;48.840;9.188;2023-09-19T16:17:07;2.05;;;1.45;;
11598;SDS011;5855;48.840;9.188;2023-09-19T16:19:37;1.35;;;1.20;;
11598;SDS011;5855;48.840;9.188;2023-09-19T16:22:04;1.63;;;1.20;;
11598;SDS011;5855;48.840;9.188;2023-09-19T16:24:31;1.83;;;1.27;;
11598;SDS011;5855;48.840;9.188;2023-09-19T16:26:57;3.30;;;1.20;;
11598;SDS011;5855;48.840;9.188;2023-09-19T16:29:24;1.17;;;0.93;;
11598;SDS011;5855;48.840;9.188;2023-09-19T16:31:51;1.73;;;1.15;;
11598;SDS011;5855;48.840;9.188;2023-09-19T16:34:19;1.90;;;1.00;;
11598;SDS011;5855;48.840;9.188;2023-09-19T16:36:47;2.30;;;1.15;;
11598;SDS011;5855;48.840;9.188;2023-09-19T16:39:14;2.25;;;1.00;;
11598;SDS011;5855;48.840;9.188;2023-09-19T16:41:40;1.10;;;1.00;;
11598;SDS011;5855;48.840;9.188;2023-09-19T16:44:08;1.23;;;1.10;;
11598;SDS011;5855;48.840;9.188;2023-09-19T16:46:34;2.97;;;1.20;;
11598;SDS011;5855;48.840;9.188;2023-09-19T16:49:01;1.50;;;1.00;;
11598;SDS011;5855;48.840;9.188;2023-09-19T16:51:31;1.92;;;0.88;;
11598;SDS011;5855;48.840;9.188;2023-09-19T16:54:02;1.98;;;1.00;;
11598;SDS011;5855;48.840;9.188;2023-09-19T16:56:29;1.73;;;1.00;;
11598;SDS011;5855;48.840;9.188;2023-09-19T16:59:02;1.58;;;1.05;;
11598;SDS011;5855;48.840;9.188;2023-09-19T17:01:30;2.30;;;1.23;;
11598;SDS011;5855;48.840;9.188;2023-09-19T17:03:58;3.40;;;1.40;;